Time;durP1;ratioP1;P1;durP2;ratioP2;P2;SDS_P1;SDS_P2;PMS_P1;PMS_P2;Temp;Humidity;BMP_temperature;BMP_pressure;BME280_temperature;BME280_humidity;BME280_pressure;Samples;Min_cycle;Max_cycle;Signal;HPM_P1;HPM_P2
2024/02/29 00:02:22;;;;;;;31.48;12.02;;;;;;;2.44;100.00;101462.81;5019041;28;20038;-70
2024/02/29 00:04:48;;;;;;;33.22;12.43;;;;;;;2.41;100.00;101457.88;5021625;28;20046;-70
2024/02/29 00:07:13;;;;;;;22.25;9.95;;;;;;;2.39;100.00;101451.16;4990940;28;20038;-71
2024/02/29 00:09:39;;;;;;;25.38;10.15;;;;;;;2.36;100.00;101453.94;5006694;28;20374;-70
2024/02/29 00:12:05;;;;;;;33.45;11.23;;;;;;;2.33;100.00;101445.47;4990040;28;20053;-70
2024/02/29 00:14:31;;;;;;;22.40;9.35;;;;;;;2.32;100.00;101448.16;5011430;28;20032;-70
2024/02/29 00:16:58;;;;;;;21.38;9.55;;;;;;;2.28;100.00;101444.94;5005608;28;20030;-70
2024/02/29 00:19:23;;;;;;;16.90;8.20;;;;;;;2.24;100.00;101446.03;5008757;28;20484;-70
2024/02/29 00:21:49;;;;;;;18.60;8.23;;;;;;;2.21;100.00;101440.25;5015315;28;20038;-70
2024/02/29 00:24:15;;;;;;;17.92;8.23;;;;;;;2.20;100.00;101438.59;5014310;28;20030;-70
2024/02/29 00:26:41;;;;;;;24.13;9.07;;;;;;;2.19;100.00;101442.06;4993362;28;20132;-70
2024/02/29 00:29:07;;;;;;;18.83;7.00;;;;;;;2.16;100.00;101426.88;5014072;28;20084;-70
2024/02/29 00:31:33;;;;;;;21.00;6.95;;;;;;;2.14;100.00;101434.63;5014541;28;21258;-70
2024/02/29 00:33:58;;;;;;;18.25;7.65;;;;;;;2.12;100.00;101437.28;5015917;28;20030;-70
2024/02/29 00:36:24;;;;;;;26.98;8.10;;;;;;;2.09;100.00;101422.13;5009028;28;20092;-70
2024/02/29 00:38:49;;;;;;;20.35;6.95;;;;;;;2.08;100.00;101417.91;5009577;28;20049;-69
2024/02/29 00:41:15;;;;;;;18.52;7.18;;;;;;;2.07;100.00;101428.22;5008652;28;20033;-70
2024/02/29 00:43:44;;;;;;;17.65;6.70;;;;;;;2.06;100.00;101409.47;5009414;28;20146;-70
2024/02/29 00:46:09;;;;;;;20.27;7.50;;;;;;;2.04;100.00;101405.38;5009765;28;20116;-70
2024/02/29 00:48:38;;;;;;;17.98;7.38;;;;;;;2.03;100.00;101407.09;5007488;28;20500;-70
2024/02/29 00:51:03;;;;;;;22.70;7.70;;;;;;;2.01;100.00;101415.78;5007864;28;20041;-70
2024/02/29 00:53:29;;;;;;;19.30;7.20;;;;;;;1.99;100.00;101413.28;4992975;28;20029;-70
2024/02/29 00:55:55;;;;;;;20.17;7.90;;;;;;;1.98;100.00;101408.25;5024449;28;20046;-70
2024/02/29 00:58:21;;;;;;;32.50;7.75;;;;;;;2.06;100.00;101396.69;4992988;28;20104;-70
2024/02/29 01:00:48;;;;;;;24.58;8.70;;;;;;;2.25;100.00;101396.47;5010288;28;20042;-70
2024/02/29 01:03:13;;;;;;;19.63;8.10;;;;;;;2.24;100.00;101391.44;5011243;28;20065;-70
2024/02/29 01:05:39;;;;;;;26.98;8.35;;;;;;;2.36;100.00;101384.81;5014315;28;20053;-70
2024/02/29 01:08:05;;;;;;;24.02;8.60;;;;;;;2.44;100.00;101383.44;5011913;28;20087;-70
2024/02/29 01:10:30;;;;;;;21.65;9.07;;;;;;;2.41;100.00;101378.50;5008866;28;20054;-70
2024/02/29 01:12:56;;;;;;;24.27;9.27;;;;;;;2.41;100.00;101381.06;5012567;28;20034;-70
2024/02/29 01:15:22;;;;;;;27.30;10.32;;;;;;;2.48;100.00;101377.22;5010498;28;20037;-69
2024/02/29 01:17:48;;;;;;;22.17;9.70;;;;;;;2.45;100.00;101379.97;5005745;28;20045;-72
2024/02/29 01:20:13;;;;;;;26.30;11.50;;;;;;;2.38;100.00;101375.31;5008412;28;20515;-70
2024/02/29 01:22:39;;;;;;;29.30;9.00;;;;;;;2.29;100.00;101374.91;4996087;28;20038;-70
2024/02/29 01:25:05;;;;;;;22.48;10.20;;;;;;;2.49;100.00;101367.81;4992117;28;20701;-70
2024/02/29 01:27:31;;;;;;;22.95;8.70;;;;;;;2.43;100.00;101365.59;5012295;28;20041;-70
2024/02/29 01:29:56;;;;;;;22.80;9.27;;;;;;;2.42;100.00;101367.34;5009231;28;20037;-70
2024/02/29 01:32:21;;;;;;;29.67;9.60;;;;;;;2.36;100.00;101362.59;5011035;28;20554;-70
2024/02/29 01:34:47;;;;;;;20.45;9.55;;;;;;;2.27;100.00;101375.91;4993214;28;20030;-70
2024/02/29 01:37:13;;;;;;;21.55;9.18;;;;;;;2.20;100.00;101364.38;5012204;28;20039;-70
2024/02/29 01:39:39;;;;;;;18.35;8.73;;;;;;;2.14;100.00;101358.69;5010020;28;20041;-70
2024/02/29 01:42:05;;;;;;;22.77;8.65;;;;;;;2.09;100.00;101363.28;4990685;28;20065;-70
2024/02/29 01:44:30;;;;;;;25.35;9.07;;;;;;;2.06;100.00;101357.50;5007986;28;20041;-70
2024/02/29 01:46:55;;;;;;;23.90;9.90;;;;;;;2.11;100.00;101347.81;4991478;28;20034;-70
2024/02/29 01:49:25;;;;;;;19.73;8.15;;;;;;;2.15;100.00;101349.31;5009611;28;20124;-70
2024/02/29 01:51:52;;;;;;;18.70;8.35;;;;;;;2.19;100.00;101347.41;5007066;28;20040;-70
2024/02/29 01:54:18;;;;;;;24.67;9.20;;;;;;;2.18;100.00;101358.53;5009257;28;20046;-70
2024/02/29 01:56:44;;;;;;;19.73;8.88;;;;;;;2.23;100.00;101347.13;4974374;28;20096;-70
2024/02/29 01:59:09;;;;;;;28.65;9.10;;;;;;;2.29;100.00;101345.94;5010543;28;20049;-70
2024/02/29 02:01:35;;;;;;;18.55;7.93;;;;;;;2.33;100.00;101348.22;5006998;28;20129;-70
2024/02/29 02:04:01;;;;;;;22.60;7.95;;;;;;;2.41;100.00;101334.16;4990342;28;20121;-70
2024/02/29 02:06:26;;;;;;;20.13;7.93;;;;;;;2.46;100.00;101337.28;4992308;28;20088;-70
2024/02/29 02:08:51;;;;;;;19.55;8.55;;;;;;;2.45;100.00;101333.91;5008973;28;20018;-70
2024/02/29 02:11:17;;;;;;;20.77;8.43;;;;;;;2.37;100.00;101341.19;5008927;28;20034;-70
2024/02/29 02:13:42;;;;;;;20.63;7.93;;;;;;;2.40;100.00;101329.97;4993027;28;20025;-70
2024/02/29 02:16:09;;;;;;;18.48;7.63;;;;;;;2.39;100.00;101325.75;5011883;28;20030;-70
2024/02/29 02:18:35;;;;;;;20.05;7.82;;;;;;;2.40;100.00;101323.09;5008020;28;20061;-70
2024/02/29 02:21:01;;;;;;;16.30;7.75;;;;;;;2.46;100.00;101314.22;5010911;28;20409;-70
2024/02/29 02:23:27;;;;;;;15.35;7.22;;;;;;;2.44;100.00;101316.88;5009620;28;20054;-70
2024/02/29 02:25:57;;;;;;;16.83;6.93;;;;;;;2.34;100.00;101313.22;5008355;28;20033;-70
2024/02/29 02:28:23;;;;;;;19.85;7.43;;;;;;;2.48;100.00;101304.72;5006872;28;20034;-69
2024/02/29 02:30:49;;;;;;;20.17;7.25;;;;;;;2.46;100.00;101304.00;5007593;28;20048;-70
2024/02/29 02:33:14;;;;;;;19.80;7.10;;;;;;;2.38;100.00;101304.44;5007728;28;20696;-70
2024/02/29 02:35:40;;;;;;;17.60;7.22;;;;;;;2.40;100.00;101296.69;5010090;28;20049;-70
2024/02/29 02:38:05;;;;;;;25.02;8.65;;;;;;;2.47;100.00;101301.34;4992369;28;20053;-70
2024/02/29 02:40:31;;;;;;;20.60;7.45;;;;;;;2.46;100.00;101291.19;5006618;28;20038;-70
2024/02/29 02:42:57;;;;;;;18.13;6.85;;;;;;;2.43;100.00;101284.53;4991277;28;20026;-71
2024/02/29 02:45:22;;;;;;;15.52;7.10;;;;;;;2.44;100.00;101278.47;5001496;28;20037;-70
2024/02/29 02:47:48;;;;;;;19.25;7.05;;;;;;;2.38;100.00;101265.25;5024989;28;20041;-70
2024/02/29 02:50:14;;;;;;;14.02;6.28;;;;;;;2.31;100.00;101268.13;5010577;28;20080;-70
2024/02/29 02:52:40;;;;;;;56.20;7.50;;;;;;;2.30;100.00;101250.34;5020315;28;20046;-70
2024/02/29 02:55:06;;;;;;;20.60;6.80;;;;;;;2.26;100.00;101254.81;5008501;28;20516;-70
2024/02/29 02:57:31;;;;;;;12.77;5.82;;;;;;;2.30;100.00;101251.16;5007891;28;20046;-70
2024/02/29 02:59:57;;;;;;;13.05;6.75;;;;;;;2.32;100.00;101246.75;4990232;28;20042;-70
2024/02/29 03:02:22;;;;;;;17.63;6.45;;;;;;;2.19;100.00;101243.28;5005408;28;20045;-70
2024/02/29 03:04:48;;;;;;;13.98;6.20;;;;;;;2.04;100.00;101239.91;5007043;28;20038;-70
2024/02/29 03:07:13;;;;;;;17.55;6.75;;;;;;;1.98;100.00;101230.03;5009265;28;20042;-70
2024/02/29 03:09:39;;;;;;;14.65;6.85;;;;;;;2.01;100.00;101232.38;4992761;28;20044;-70
2024/02/29 03:12:05;;;;;;;15.45;6.18;;;;;;;2.07;100.00;101231.22;5007901;28;20042;-70
2024/02/29 03:14:30;;;;;;;17.27;7.07;;;;;;;1.99;100.00;101223.16;4988661;28;20022;-70
2024/02/29 03:16:56;;;;;;;17.08;6.72;;;;;;;2.01;100.00;101213.66;4974092;28;20049;-70
2024/02/29 03:19:21;;;;;;;12.57;6.65;;;;;;;1.93;100.00;101214.94;5006387;28;20093;-70
2024/02/29 03:21:47;;;;;;;15.93;6.68;;;;;;;1.98;100.00;101209.56;5007489;28;20044;-70
2024/02/29 03:24:12;;;;;;;15.98;7.05;;;;;;;2.01;100.00;101211.09;4991566;28;20432;-70
2024/02/29 03:26:38;;;;;;;20.30;6.53;;;;;;;2.07;100.00;101203.06;4992641;28;20041;-70
2024/02/29 03:29:03;;;;;;;20.80;7.35;;;;;;;2.11;100.00;101201.97;4990752;28;20408;-70
2024/02/29 03:31:29;;;;;;;16.35;7.32;;;;;;;2.08;100.00;101202.16;5019358;28;20118;-70
2024/02/29 03:33:54;;;;;;;16.35;6.53;;;;;;;2.08;100.00;101199.59;4993173;28;20117;-70
2024/02/29 03:36:19;;;;;;;16.52;6.55;;;;;;;1.98;100.00;101204.44;4994029;28;20037;-70
2024/02/29 03:38:45;;;;;;;14.10;6.63;;;;;;;1.92;100.00;101192.84;5008298;28;20030;-70
2024/02/29 03:41:10;;;;;;;18.30;7.07;;;;;;;2.05;100.00;101185.25;4991946;28;20084;-70
2024/02/29 03:43:36;;;;;;;16.55;7.25;;;;;;;2.05;100.00;101185.25;4989119;28;20050;-70
2024/02/29 03:46:01;;;;;;;16.75;7.57;;;;;;;2.06;100.00;101183.53;5008655;28;20041;-69
2024/02/29 03:48:28;;;;;;;19.27;7.07;;;;;;;2.03;100.00;101181.13;4990036;28;20046;-69
2024/02/29 03:50:53;;;;;;;16.60;7.22;;;;;;;1.91;100.00;101172.47;5004793;28;20030;-70
2024/02/29 03:53:19;;;;;;;16.83;7.63;;;;;;;1.92;100.00;101172.38;4993953;28;20049;-70
2024/02/29 03:55:47;;;;;;;17.17;7.55;;;;;;;1.92;100.00;101169.81;5002029;28;20072;-72
2024/02/29 03:58:13;;;;;;;15.60;7.13;;;;;;;1.92;100.00;101179.22;5011859;28;20104;-70
2024/02/29 04:00:39;;;;;;;17.48;7.95;;;;;;;2.05;100.00;101167.34;5010155;28;20559;-70
2024/02/29 04:03:04;;;;;;;22.10;7.30;;;;;;;1.90;100.00;101170.81;4994129;28;20033;-69
2024/02/29 04:05:30;;;;;;;22.30;9.40;;;;;;;1.83;100.00;101174.63;5007177;28;20698;-69
2024/02/29 04:08:00;;;;;;;26.65;8.57;;;;;;;1.85;100.00;101165.97;5008560;28;20116;-70
2024/02/29 04:10:27;;;;;;;18.35;8.02;;;;;;;2.03;100.00;101174.28;5011381;28;20049;-70
2024/02/29 04:12:53;;;;;;;21.40;8.27;;;;;;;1.87;100.00;101168.44;5013873;28;20042;-70
2024/02/29 04:15:18;;;;;;;21.73;8.77;;;;;;;1.89;100.00;101164.88;5008287;28;21262;-70
2024/02/29 04:17:44;;;;;;;20.17;8.90;;;;;;;1.95;100.00;101156.03;5012760;28;20024;-70
2024/02/29 04:20:09;;;;;;;21.75;9.43;;;;;;;1.97;100.00;101161.88;5008179;28;20501;-70
2024/02/29 04:22:35;;;;;;;24.33;10.02;;;;;;;2.05;100.00;101162.22;5009351;28;20455;-70
2024/02/29 04:25:00;;;;;;;26.33;9.50;;;;;;;1.96;100.00;101150.00;5007477;28;20026;-69
2024/02/29 04:27:26;;;;;;;19.98;7.85;;;;;;;2.06;100.00;101157.94;5016028;28;20034;-70
2024/02/29 04:29:51;;;;;;;24.42;9.98;;;;;;;1.94;100.00;101152.66;5009964;28;20048;-70
2024/02/29 04:32:17;;;;;;;23.75;10.15;;;;;;;2.03;100.00;101151.25;5010123;28;20428;-70
2024/02/29 04:34:43;;;;;;;26.55;10.18;;;;;;;2.08;100.00;101148.44;5009130;28;20400;-69
2024/02/29 04:37:09;;;;;;;27.38;10.07;;;;;;;2.04;100.00;101145.25;5009878;28;20529;-70
2024/02/29 04:39:34;;;;;;;25.50;9.90;;;;;;;1.93;100.00;101143.31;5012978;28;20115;-70
2024/02/29 04:42:00;;;;;;;25.73;10.85;;;;;;;1.99;100.00;101137.00;5006400;28;20066;-69
2024/02/29 04:44:25;;;;;;;27.85;11.55;;;;;;;2.01;100.00;101137.75;5024811;28;20057;-70
2024/02/29 04:46:51;;;;;;;27.40;11.85;;;;;;;1.92;100.00;101128.91;5007614;28;20045;-70
2024/02/29 04:49:17;;;;;;;33.78;12.80;;;;;;;2.01;100.00;101140.28;5011654;28;20100;-69
2024/02/29 04:51:42;;;;;;;29.52;11.63;;;;;;;2.01;100.00;101132.63;5007948;28;20125;-70
2024/02/29 04:54:08;;;;;;;29.63;11.63;;;;;;;2.07;100.00;101126.31;5011213;28;20033;-70
2024/02/29 04:56:35;;;;;;;28.15;11.60;;;;;;;2.04;100.00;101123.97;4988845;28;20158;-70
2024/02/29 04:59:00;;;;;;;30.90;12.32;;;;;;;2.04;100.00;101116.28;4991981;28;20029;-70
2024/02/29 05:01:26;;;;;;;31.83;12.52;;;;;;;2.05;100.00;101121.28;5008569;28;20049;-69
2024/02/29 05:03:51;;;;;;;32.78;12.38;;;;;;;2.14;100.00;101123.28;5012651;28;20045;-70
2024/02/29 05:06:17;;;;;;;34.45;13.07;;;;;;;2.11;100.00;101120.09;4991355;28;20037;-69
2024/02/29 05:08:43;;;;;;;28.55;12.38;;;;;;;2.07;100.00;101122.03;5008364;28;20077;-70
2024/02/29 05:11:09;;;;;;;29.75;12.52;;;;;;;2.03;100.00;101115.44;5003173;28;20511;-70
2024/02/29 05:13:34;;;;;;;33.00;12.68;;;;;;;2.04;100.00;101116.28;5009498;28;20045;-69
2024/02/29 05:16:03;;;;;;;40.17;14.90;;;;;;;2.07;100.00;101106.69;5006862;28;20034;-70
2024/02/29 05:18:29;;;;;;;32.30;13.88;;;;;;;2.13;100.00;101115.72;5008069;28;20056;-70
2024/02/29 05:20:54;;;;;;;31.75;12.80;;;;;;;2.04;100.00;101121.41;5008177;28;20041;-70
2024/02/29 05:23:20;;;;;;;35.20;13.18;;;;;;;2.08;100.00;101107.50;5010397;28;20084;-70
2024/02/29 05:25:45;;;;;;;37.50;14.48;;;;;;;2.09;100.00;101111.69;5023099;28;20041;-70
2024/02/29 05:28:11;;;;;;;39.88;14.32;;;;;;;2.08;100.00;101102.38;5009147;28;20034;-70
2024/02/29 05:30:36;;;;;;;31.52;13.88;;;;;;;2.08;100.00;101100.63;5007616;28;20049;-71
2024/02/29 05:33:02;;;;;;;37.92;14.77;;;;;;;2.06;100.00;101099.91;5012354;28;20029;-70
2024/02/29 05:35:28;;;;;;;34.33;13.77;;;;;;;2.16;100.00;101096.81;5009897;28;20029;-70
2024/02/29 05:37:54;;;;;;;34.97;13.65;;;;;;;2.05;100.00;101095.69;5007697;28;20033;-70
2024/02/29 05:40:20;;;;;;;39.85;15.18;;;;;;;2.10;100.00;101092.88;5010359;28;20480;-70
2024/02/29 05:42:45;;;;;;;32.60;13.02;;;;;;;2.18;100.00;101092.41;4992403;28;20054;-70
2024/02/29 05:45:12;;;;;;;37.47;15.13;;;;;;;2.19;100.00;101094.88;4992155;28;20029;-71
2024/02/29 05:47:37;;;;;;;43.33;16.33;;;;;;;2.12;100.00;101094.41;5009049;28;21009;-72
2024/02/29 05:50:03;;;;;;;39.15;14.95;;;;;;;2.10;100.00;101100.56;5012377;28;20022;-71
2024/02/29 05:52:29;;;;;;;40.38;15.63;;;;;;;2.23;100.00;101087.84;5019756;28;20047;-71
2024/02/29 05:54:54;;;;;;;40.92;15.55;;;;;;;2.18;100.00;101085.53;4993837;28;20041;-71
2024/02/29 05:57:20;;;;;;;39.65;15.90;;;;;;;2.19;100.00;101082.09;5013646;28;20080;-72
2024/02/29 05:59:45;;;;;;;41.15;15.82;;;;;;;2.16;100.00;101089.13;4996521;28;20615;-71
2024/02/29 06:02:11;;;;;;;38.03;16.55;;;;;;;2.13;100.00;101080.72;4989417;28;20048;-71
2024/02/29 06:04:36;;;;;;;37.50;15.45;;;;;;;2.09;100.00;101086.94;5009502;28;20034;-71
2024/02/29 06:07:02;;;;;;;44.58;15.98;;;;;;;2.08;100.00;101082.72;5004605;28;20044;-71
2024/02/29 06:09:28;;;;;;;38.00;15.73;;;;;;;2.19;100.00;101081.28;5009536;28;20449;-71
2024/02/29 06:11:53;;;;;;;38.97;14.82;;;;;;;2.09;100.00;101078.44;5010560;28;20115;-72
2024/02/29 06:14:19;;;;;;;33.95;14.20;;;;;;;2.10;100.00;101073.22;5010572;28;20021;-71
2024/02/29 06:16:45;;;;;;;34.13;14.85;;;;;;;2.12;100.00;101083.38;4994288;28;20172;-73
2024/02/29 06:19:10;;;;;;;36.85;15.52;;;;;;;2.14;100.00;101074.69;4996131;28;20030;-74
2024/02/29 06:21:36;;;;;;;37.35;15.60;;;;;;;2.16;100.00;101077.13;4996810;28;20045;-71
2024/02/29 06:24:01;;;;;;;39.67;15.43;;;;;;;2.13;100.00;101070.50;4978320;28;20030;-71
2024/02/29 06:26:26;;;;;;;41.53;15.68;;;;;;;2.16;100.00;101071.22;5013871;28;20069;-71
2024/02/29 06:28:52;;;;;;;34.38;15.38;;;;;;;2.18;100.00;101062.50;4993544;28;20558;-71
2024/02/29 06:31:17;;;;;;;42.78;16.23;;;;;;;2.30;100.00;101060.94;4998962;28;20438;-71
2024/02/29 06:33:43;;;;;;;38.10;15.20;;;;;;;2.27;100.00;101066.25;5011793;28;20029;-71
2024/02/29 06:36:09;;;;;;;42.60;16.20;;;;;;;2.26;100.00;101055.19;5010397;28;20030;-71
2024/02/29 06:38:35;;;;;;;38.28;14.93;;;;;;;2.25;100.00;101055.28;5015217;28;20122;-72
2024/02/29 06:41:00;;;;;;;36.00;14.13;;;;;;;2.37;100.00;101053.69;4994216;28;20046;-71
2024/02/29 06:43:26;;;;;;;36.00;14.38;;;;;;;2.40;100.00;101054.31;4992640;28;20053;-71
2024/02/29 06:45:51;;;;;;;35.90;14.40;;;;;;;2.46;100.00;101053.13;4993858;28;20041;-71
2024/02/29 06:48:18;;;;;;;40.35;15.32;;;;;;;2.48;100.00;101053.84;5022561;28;20038;-71
2024/02/29 06:50:43;;;;;;;39.20;15.07;;;;;;;2.52;100.00;101051.00;4994532;28;20033;-71
2024/02/29 06:53:09;;;;;;;37.03;14.88;;;;;;;2.58;100.00;101046.38;4989389;28;20034;-71
2024/02/29 06:55:35;;;;;;;39.72;14.38;;;;;;;2.62;100.00;101046.09;4990457;28;20042;-73
2024/02/29 06:58:02;;;;;;;39.22;14.20;;;;;;;2.70;100.00;101043.88;4980731;28;20041;-71
2024/02/29 07:00:28;;;;;;;31.70;14.48;;;;;;;2.74;100.00;101039.38;5009145;28;20444;-72
2024/02/29 07:02:55;;;;;;;38.63;14.20;;;;;;;2.71;100.00;101039.56;5022934;28;20417;-73
2024/02/29 07:05:21;;;;;;;40.55;14.43;;;;;;;2.76;100.00;101042.66;5003597;28;20456;-71
2024/02/29 07:07:46;;;;;;;43.25;19.50;;;;;;;2.78;100.00;101037.44;5009643;28;20034;-71
2024/02/29 07:10:12;;;;;;;31.25;13.80;;;;;;;2.85;100.00;101039.50;5015967;28;20030;-71
2024/02/29 07:12:38;;;;;;;56.13;25.30;;;;;;;2.97;100.00;101031.94;5006025;28;20049;-71
2024/02/29 07:15:06;;;;;;;58.63;23.90;;;;;;;2.92;100.00;101029.69;5005727;28;20025;-71
2024/02/29 07:17:32;;;;;;;66.63;26.90;;;;;;;2.99;100.00;101030.88;5009548;28;20026;-71
2024/02/29 07:19:58;;;;;;;87.45;33.13;;;;;;;2.95;100.00;101029.47;4992096;28;20544;-71
2024/02/29 07:22:24;;;;;;;74.75;30.67;;;;;;;3.01;100.00;101029.03;5020003;28;20045;-71
2024/02/29 07:24:49;;;;;;;53.53;23.30;;;;;;;3.12;100.00;101021.47;5022697;28;20122;-71
2024/02/29 07:27:15;;;;;;;65.05;29.20;;;;;;;3.18;100.00;101020.25;5013674;28;20038;-73
2024/02/29 07:29:40;;;;;;;46.55;22.42;;;;;;;3.21;100.00;101022.59;5013751;28;20033;-71
2024/02/29 07:32:06;;;;;;;50.97;20.02;;;;;;;3.24;100.00;101026.69;5006842;28;20041;-73
2024/02/29 07:34:31;;;;;;;100.15;39.53;;;;;;;3.24;100.00;101017.28;5013691;28;20029;-71
2024/02/29 07:36:57;;;;;;;49.05;19.13;;;;;;;3.26;100.00;101014.63;5010952;28;20117;-71
2024/02/29 07:39:22;;;;;;;94.05;38.05;;;;;;;3.27;100.00;101018.81;4992860;28;21676;-71
2024/02/29 07:41:48;;;;;;;69.55;30.77;;;;;;;3.32;100.00;101011.66;5006659;28;20084;-71
2024/02/29 07:44:13;;;;;;;92.22;39.67;;;;;;;3.35;100.00;101005.47;5007459;28;20030;-71
2024/02/29 07:46:39;;;;;;;169.15;81.75;;;;;;;3.37;100.00;101006.19;5021823;28;20030;-71
2024/02/29 07:49:04;;;;;;;322.83;161.82;;;;;;;3.45;100.00;101006.50;5020284;28;20979;-71
2024/02/29 07:51:30;;;;;;;116.53;63.10;;;;;;;3.49;100.00;101002.81;5008074;28;20703;-71
2024/02/29 07:53:55;;;;;;;80.18;40.38;;;;;;;3.65;100.00;100994.88;5005972;28;20014;-71
2024/02/29 07:56:21;;;;;;;70.70;36.55;;;;;;;3.70;100.00;100997.94;5003527;28;20038;-71
2024/02/29 07:58:46;;;;;;;54.00;28.02;;;;;;;3.72;100.00;101001.22;5007053;28;20042;-71
2024/02/29 08:01:13;;;;;;;44.90;21.00;;;;;;;3.72;100.00;101002.97;4990782;28;20034;-71
2024/02/29 08:03:38;;;;;;;43.05;18.25;;;;;;;3.75;100.00;100995.03;5011090;28;20049;-71
2024/02/29 08:06:04;;;;;;;40.47;16.00;;;;;;;3.82;100.00;100999.63;5011713;28;20038;-71
2024/02/29 08:08:30;;;;;;;39.47;15.10;;;;;;;3.82;100.00;100988.56;4991903;28;20041;-71
2024/02/29 08:10:55;;;;;;;36.60;13.77;;;;;;;3.90;100.00;100989.66;5009392;28;20451;-71
2024/02/29 08:13:21;;;;;;;30.88;14.27;;;;;;;3.95;100.00;100991.91;5006660;28;20034;-71
2024/02/29 08:15:46;;;;;;;33.88;13.63;;;;;;;4.02;100.00;100982.03;5006230;28;20572;-71
2024/02/29 08:18:13;;;;;;;28.02;13.40;;;;;;;4.19;100.00;100981.66;4982025;28;20030;-71
2024/02/29 08:20:39;;;;;;;30.77;13.98;;;;;;;4.18;100.00;100980.03;5012074;28;20184;-71
2024/02/29 08:23:05;;;;;;;30.52;13.68;;;;;;;4.14;100.00;100975.19;5008882;28;20396;-72
2024/02/29 08:25:31;;;;;;;33.55;14.18;;;;;;;4.25;100.00;100975.25;4994086;28;20046;-73
2024/02/29 08:27:56;;;;;;;34.38;13.95;;;;;;;4.35;100.00;100970.25;5023400;28;20037;-71
2024/02/29 08:30:23;;;;;;;30.05;13.77;;;;;;;4.44;100.00;100964.47;5008328;28;20476;-71
2024/02/29 08:32:48;;;;;;;28.55;13.18;;;;;;;4.54;100.00;100962.88;5008434;28;20022;-72
2024/02/29 08:35:15;;;;;;;28.98;12.95;;;;;;;4.61;100.00;100963.22;5007409;28;20548;-71
2024/02/29 08:37:44;;;;;;;31.05;12.50;;;;;;;4.70;100.00;100967.69;5000173;28;20400;-71
2024/02/29 08:40:10;;;;;;;29.90;14.00;;;;;;;4.81;100.00;100954.84;5009598;28;20030;-73
2024/02/29 08:42:36;;;;;;;27.15;12.20;;;;;;;4.88;100.00;100956.03;4995888;28;20076;-71
2024/02/29 08:45:02;;;;;;;26.60;11.90;;;;;;;5.01;100.00;100947.41;4997162;28;20387;-72
2024/02/29 08:47:27;;;;;;;23.75;12.32;;;;;;;5.06;100.00;100950.44;5013934;28;20110;-71
2024/02/29 08:49:53;;;;;;;26.50;12.30;;;;;;;5.09;100.00;100949.41;4996185;28;20454;-71
2024/02/29 08:52:19;;;;;;;31.10;13.15;;;;;;;5.20;100.00;100954.56;4999835;28;20072;-71
2024/02/29 08:54:44;;;;;;;28.92;12.38;;;;;;;5.32;100.00;100958.75;5024902;28;20037;-71
2024/02/29 08:57:10;;;;;;;24.30;12.00;;;;;;;5.38;100.00;100944.59;5010903;28;20046;-71
2024/02/29 08:59:35;;;;;;;26.83;11.82;;;;;;;5.48;100.00;100942.94;5014148;28;20096;-71
2024/02/29 09:02:01;;;;;;;27.88;11.57;;;;;;;5.57;100.00;100942.22;5010621;28;20045;-71
2024/02/29 09:04:26;;;;;;;24.77;11.25;;;;;;;5.58;100.00;100941.28;4995236;28;20092;-71
2024/02/29 09:06:52;;;;;;;27.25;11.73;;;;;;;5.57;100.00;100937.06;5010904;28;20045;-72
2024/02/29 09:09:18;;;;;;;25.52;12.00;;;;;;;5.62;100.00;100932.41;5010814;28;20116;-71
2024/02/29 09:11:43;;;;;;;23.17;10.45;;;;;;;5.67;100.00;100932.06;5015401;28;20044;-71
2024/02/29 09:14:09;;;;;;;26.00;11.70;;;;;;;5.65;100.00;100926.19;5013005;28;20052;-71
2024/02/29 09:16:35;;;;;;;26.52;12.00;;;;;;;5.74;100.00;100933.19;5013054;28;20225;-71
2024/02/29 09:19:00;;;;;;;19.25;10.48;;;;;;;5.78;100.00;100926.03;5009033;28;20040;-72
2024/02/29 09:21:26;;;;;;;26.08;11.93;;;;;;;5.87;100.00;100922.72;5010366;28;20105;-71
2024/02/29 09:23:51;;;;;;;26.33;11.85;;;;;;;5.82;100.00;100930.00;5018243;28;20041;-72
2024/02/29 09:26:18;;;;;;;28.23;11.85;;;;;;;5.89;100.00;100920.84;5014955;28;20034;-71
2024/02/29 09:28:44;;;;;;;36.83;16.23;;;;;;;6.04;100.00;100911.13;5014441;28;20038;-71
2024/02/29 09:31:13;;;;;;;247.15;89.57;;;;;;;6.08;100.00;100916.84;5008968;28;20504;-72
2024/02/29 09:33:39;;;;;;;66.97;32.80;;;;;;;6.04;100.00;100905.97;5014167;28;20028;-71
2024/02/29 09:36:10;;;;;;;26.77;12.23;;;;;;;6.09;100.00;100900.47;4997262;28;20543;-72
2024/02/29 09:38:36;;;;;;;53.08;26.27;;;;;;;6.09;100.00;100903.03;4999437;28;20464;-71
2024/02/29 09:41:04;;;;;;;25.20;13.23;;;;;;;6.26;100.00;100907.63;4996005;28;20038;-71
2024/02/29 09:43:31;;;;;;;27.05;12.68;;;;;;;6.14;100.00;100909.44;4996700;28;20033;-72
2024/02/29 09:45:58;;;;;;;20.27;10.73;;;;;;;6.21;100.00;100905.41;5010191;28;20515;-72
2024/02/29 09:48:25;;;;;;;25.48;13.13;;;;;;;6.30;100.00;100887.59;5012290;28;20476;-71
2024/02/29 09:50:52;;;;;;;22.38;11.25;;;;;;;6.40;100.00;100896.19;4993643;28;20112;-72
2024/02/29 09:53:19;;;;;;;22.30;11.05;;;;;;;6.50;100.00;100891.91;5010709;28;20396;-71
2024/02/29 09:55:45;;;;;;;24.10;10.20;;;;;;;6.41;100.00;100890.09;5013765;28;20041;-71
2024/02/29 09:58:16;;;;;;;18.77;9.90;;;;;;;6.53;100.00;100883.91;5012615;28;20503;-71
2024/02/29 10:00:43;;;;;;;18.60;9.90;;;;;;;6.58;100.00;100891.28;5012604;28;20057;-71
2024/02/29 10:03:11;;;;;;;18.20;9.57;;;;;;;6.58;100.00;100888.72;5010290;28;20041;-71
2024/02/29 10:05:37;;;;;;;20.20;9.10;;;;;;;6.64;99.19;100885.63;5014731;28;20056;-71
2024/02/29 10:08:03;;;;;;;17.65;8.48;;;;;;;6.70;98.77;100869.63;5011447;28;20037;-72
2024/02/29 10:10:29;;;;;;;20.35;9.55;;;;;;;6.79;97.61;100871.44;4997864;28;20040;-71
2024/02/29 10:12:55;;;;;;;18.27;9.07;;;;;;;6.85;96.70;100875.25;4995757;28;20094;-72
2024/02/29 10:15:25;;;;;;;16.58;9.23;;;;;;;6.88;96.72;100866.47;5009616;28;20022;-71
2024/02/29 10:17:50;;;;;;;17.20;8.80;;;;;;;6.96;95.13;100857.13;4994659;28;20053;-72
2024/02/29 10:20:18;;;;;;;18.63;7.88;;;;;;;7.05;94.40;100849.56;5010645;28;20033;-71
2024/02/29 10:22:44;;;;;;;14.65;7.70;;;;;;;7.23;95.43;100847.94;4996170;28;20022;-71
2024/02/29 10:25:13;;;;;;;16.20;7.85;;;;;;;7.58;93.82;100850.03;4993287;28;20554;-71
2024/02/29 10:27:39;;;;;;;15.93;7.85;;;;;;;7.57;90.27;100850.16;5009769;28;20128;-72
2024/02/29 10:30:15;;;;;;;15.38;8.15;;;;;;;7.66;89.84;100840.81;5008227;28;20393;-71
2024/02/29 10:32:43;;;;;;;14.50;7.22;;;;;;;7.70;90.11;100840.38;5011029;28;20048;-72
2024/02/29 10:35:19;;;;;;;16.33;7.32;;;;;;;7.82;89.37;100842.81;4991181;28;21324;-72
2024/02/29 10:37:53;;;;;;;15.48;7.32;;;;;;;7.91;89.75;100824.78;5017301;28;20567;-71
2024/02/29 10:40:19;;;;;;;13.93;7.10;;;;;;;8.04;88.77;100831.41;4990735;28;20377;-72
2024/02/29 10:42:48;;;;;;;13.95;7.50;;;;;;;8.08;87.89;100820.66;4991958;28;20096;-72
2024/02/29 10:45:15;;;;;;;18.00;7.00;;;;;;;8.11;87.63;100824.72;5014209;28;20085;-71
2024/02/29 10:47:56;;;;;;;18.83;6.90;;;;;;;8.17;88.68;100819.00;5015903;28;20117;-72
2024/02/29 10:50:25;;;;;;;13.43;6.93;;;;;;;8.22;89.19;100821.19;4975399;28;20033;-71
2024/02/29 10:53:05;;;;;;;15.48;6.38;;;;;;;8.32;87.75;100819.38;5023323;28;20038;-73
2024/02/29 10:55:41;;;;;;;11.15;6.30;;;;;;;8.32;86.93;100814.22;5013018;28;20041;-72
2024/02/29 10:58:21;;;;;;;15.43;7.80;;;;;;;8.39;89.13;100815.28;5009859;28;20085;-72
2024/02/29 11:00:47;;;;;;;16.25;7.00;;;;;;;8.51;87.44;100810.78;4987099;28;20038;-72
2024/02/29 11:03:13;;;;;;;11.60;6.70;;;;;;;8.62;87.30;100807.19;5011409;28;20125;-71
2024/02/29 11:05:40;;;;;;;16.63;5.68;;;;;;;8.70;87.33;100810.72;5007888;28;20071;-71
2024/02/29 11:08:06;;;;;;;17.40;6.10;;;;;;;8.76;88.46;100798.97;5010797;28;20528;-71
2024/02/29 11:10:31;;;;;;;11.73;5.97;;;;;;;8.93;87.19;100797.38;5013167;28;20705;-71